createdAt,value
2023-03-03T00:00:06.607Z,99.99
2023-03-03T00:01:06.603Z,99.99
2023-03-03T00:02:06.774Z,99.99
2023-03-03T00:03:06.726Z,99.99
2023-03-03T00:04:09.461Z,99.99
2023-03-03T00:05:06.605Z,99.99
2023-03-03T00:06:06.628Z,99.99
2023-03-03T00:07:06.657Z,99.99
2023-03-03T00:08:06.704Z,99.99
2023-03-03T00:09:06.630Z,99.99
2023-03-03T00:10:06.626Z,99.99
2023-03-03T00:11:06.619Z,99.99
2023-03-03T00:12:06.639Z,99.99
2023-03-03T00:13:06.637Z,99.99
2023-03-03T00:14:06.614Z,99.99
2023-03-03T00:15:06.627Z,99.99
2023-03-03T00:16:06.764Z,99.99
2023-03-03T00:17:06.737Z,99.99
2023-03-03T00:18:07.659Z,99.99
2023-03-03T00:19:06.643Z,99.99
2023-03-03T00:20:06.626Z,99.99
2023-03-03T00:21:06.662Z,99.99
2023-03-03T00:22:06.661Z,99.99
2023-03-03T00:23:06.639Z,99.99
2023-03-03T00:24:06.640Z,99.99
2023-03-03T00:25:06.633Z,99.99
2023-03-03T00:26:06.658Z,99.99
2023-03-03T00:27:06.676Z,99.99
2023-03-03T00:28:06.642Z,99.99
2023-03-03T00:29:06.648Z,99.99
2023-03-03T00:30:06.664Z,99.99
2023-03-03T00:31:09.489Z,99.99
2023-03-03T00:32:06.777Z,99.99
2023-03-03T00:33:06.681Z,99.99
2023-03-03T00:34:06.751Z,99.99
2023-03-03T00:35:06.663Z,99.99
2023-03-03T00:36:06.678Z,99.99
2023-03-03T00:37:06.683Z,99.99
2023-03-03T00:38:06.660Z,99.99
2023-03-03T00:39:06.652Z,99.99
2023-03-03T00:40:06.675Z,99.99
2023-03-03T00:41:06.670Z,99.99
2023-03-03T00:42:07.594Z,99.99
2023-03-03T00:43:06.673Z,99.99
2023-03-03T00:44:06.512Z,99.99
2023-03-03T00:45:06.686Z,99.99
2023-03-03T00:46:06.873Z,99.99
2023-03-03T00:47:06.710Z,99.99
2023-03-03T00:48:06.681Z,99.99
2023-03-03T00:49:06.693Z,99.99
2023-03-03T00:50:06.748Z,99.99
2023-03-03T00:51:06.690Z,99.99
2023-03-03T00:52:06.757Z,99.99
2023-03-03T00:53:09.833Z,99.99
2023-03-03T00:54:06.690Z,99.99
2023-03-03T00:55:06.719Z,99.99
2023-03-03T00:56:06.682Z,99.99
2023-03-03T00:57:06.924Z,99.99
2023-03-03T00:58:06.725Z,99.99
2023-03-03T00:59:06.689Z,99.99
2023-03-03T01:00:06.701Z,99.99
2023-03-03T01:01:06.697Z,99.99
2023-03-03T01:02:06.741Z,99.99
2023-03-03T01:03:06.723Z,99.99
2023-03-03T01:04:06.691Z,99.99
2023-03-03T01:05:06.730Z,99.99
2023-03-03T01:06:06.805Z,99.99
2023-03-03T01:07:06.752Z,99.99
2023-03-03T01:08:06.748Z,99.99
2023-03-03T01:09:06.715Z,99.99
2023-03-03T01:10:06.721Z,99.99
2023-03-03T01:11:06.721Z,99.99
2023-03-03T01:12:06.752Z,99.99
2023-03-03T01:13:06.764Z,99.99
2023-03-03T01:15:06.747Z,99.99
2023-03-03T01:16:06.795Z,99.99
2023-03-03T01:17:06.741Z,99.99
2023-03-03T01:18:06.728Z,99.99
2023-03-03T01:19:06.732Z,99.99
2023-03-03T01:20:06.729Z,99.99
2023-03-03T01:21:06.746Z,99.99
2023-03-03T01:22:06.791Z,99.99
2023-03-03T01:23:06.734Z,99.99
2023-03-03T01:24:06.736Z,99.99
2023-03-03T01:25:09.728Z,99.99
2023-03-03T01:26:06.753Z,99.99
2023-03-03T01:27:06.799Z,99.99
2023-03-03T01:28:06.743Z,99.99
2023-03-03T01:29:06.756Z,99.99
2023-03-03T01:30:06.796Z,99.99
2023-03-03T01:31:06.846Z,99.99
2023-03-03T01:32:06.931Z,99.99
2023-03-03T01:33:06.751Z,99.99
2023-03-03T01:34:06.754Z,99.99
2023-03-03T01:35:06.766Z,99.99
2023-03-03T01:36:09.912Z,99.99
2023-03-03T01:37:06.770Z,99.99
2023-03-03T01:38:06.786Z,99.99
2023-03-03T01:39:06.780Z,99.99
2023-03-03T01:40:06.756Z,99.99
2023-03-03T01:41:06.750Z,99.99
2023-03-03T01:42:06.796Z,99.99
2023-03-03T01:43:06.769Z,99.99
2023-03-03T01:44:06.766Z,99.99
2023-03-03T01:45:06.816Z,99.99
2023-03-03T01:46:06.921Z,99.99
2023-03-03T01:47:09.690Z,99.99
2023-03-03T01:48:06.912Z,99.99
2023-03-03T01:49:06.774Z,99.99
2023-03-03T01:50:06.755Z,99.99
2023-03-03T01:51:06.786Z,99.99
2023-03-03T01:52:06.790Z,99.99
2023-03-03T01:53:06.764Z,99.99
2023-03-03T01:54:06.887Z,99.99
2023-03-03T01:55:06.852Z,99.99
2023-03-03T01:56:06.784Z,99.99
2023-03-03T01:57:06.780Z,99.99
2023-03-03T01:58:15.676Z,99.99
2023-03-03T01:59:06.785Z,99.99
2023-03-03T02:00:06.823Z,99.99
2023-03-03T02:01:06.817Z,99.99
2023-03-03T02:02:06.860Z,99.99
2023-03-03T02:03:06.940Z,99.99
2023-03-03T02:04:06.819Z,99.99
2023-03-03T02:05:06.817Z,99.99
2023-03-03T02:06:06.795Z,99.99
2023-03-03T02:07:06.833Z,99.99
2023-03-03T02:08:06.814Z,99.99
2023-03-03T02:09:07.894Z,99.99
2023-03-03T02:10:06.853Z,99.99
2023-03-03T02:11:06.813Z,99.99
2023-03-03T02:12:06.854Z,99.99
2023-03-03T02:13:06.817Z,99.99
2023-03-03T02:14:06.816Z,99.99
2023-03-03T02:15:06.809Z,99.99
2023-03-03T02:16:06.970Z,99.99
2023-03-03T02:17:06.861Z,99.99
2023-03-03T02:18:06.834Z,99.99
2023-03-03T02:19:06.871Z,99.99
2023-03-03T02:20:09.974Z,99.99
2023-03-03T02:21:06.832Z,99.99
2023-03-03T02:22:06.814Z,99.99
2023-03-03T02:23:06.656Z,99.99
2023-03-03T02:24:06.859Z,99.99
2023-03-03T02:25:06.924Z,99.99
2023-03-03T02:26:06.888Z,99.99
2023-03-03T02:27:06.841Z,99.99
2023-03-03T02:28:06.828Z,99.99
2023-03-03T02:29:06.847Z,99.99
2023-03-03T02:30:06.887Z,99.99
2023-03-03T02:31:09.915Z,99.99
2023-03-03T02:32:06.728Z,99.99
2023-03-03T02:33:06.873Z,99.99
2023-03-03T02:34:06.849Z,99.99
2023-03-03T02:35:06.866Z,99.99
2023-03-03T02:36:06.857Z,99.99
2023-03-03T02:37:06.851Z,99.99
2023-03-03T02:38:06.854Z,99.99
2023-03-03T02:39:06.909Z,99.99
2023-03-03T02:40:06.870Z,99.99
2023-03-03T02:41:06.872Z,99.99
2023-03-03T02:42:06.983Z,99.99
2023-03-03T02:43:06.881Z,99.99
2023-03-03T02:44:06.864Z,99.99
2023-03-03T02:45:06.881Z,99.99
2023-03-03T02:46:07.059Z,99.99
2023-03-03T02:47:06.888Z,99.99
2023-03-03T02:48:06.888Z,99.99
2023-03-03T02:49:06.874Z,99.99
2023-03-03T02:50:06.880Z,99.99
2023-03-03T02:51:06.907Z,99.99
2023-03-03T02:52:06.886Z,99.99
2023-03-03T02:53:06.879Z,99.99
2023-03-03T02:54:06.880Z,99.99
2023-03-03T02:55:06.880Z,99.99
2023-03-03T02:56:06.927Z,99.99
2023-03-03T02:57:06.895Z,99.99
2023-03-03T02:58:09.785Z,99.99
2023-03-03T02:59:06.883Z,99.99
2023-03-03T03:00:06.885Z,99.99
2023-03-03T03:01:07.104Z,99.99
2023-03-03T03:02:06.898Z,99.99
2023-03-03T03:03:06.897Z,99.99
2023-03-03T03:04:08.343Z,99.99
2023-03-03T03:05:06.903Z,99.99
2023-03-03T03:06:06.893Z,99.99
2023-03-03T03:07:06.943Z,99.99
2023-03-03T03:08:06.900Z,99.99
2023-03-03T03:09:09.760Z,99.99
2023-03-03T03:10:06.914Z,99.99
2023-03-03T03:11:06.947Z,99.99
2023-03-03T03:12:06.901Z,99.99
2023-03-03T03:13:06.963Z,99.99
2023-03-03T03:14:06.943Z,99.99
2023-03-03T03:15:06.910Z,99.99
2023-03-03T03:16:06.929Z,99.99
2023-03-03T03:17:06.909Z,99.99
2023-03-03T03:18:06.919Z,99.99
2023-03-03T03:19:06.931Z,99.99
2023-03-03T03:20:09.706Z,99.99
2023-03-03T03:21:06.922Z,99.99
2023-03-03T03:22:06.963Z,99.99
2023-03-03T03:23:06.936Z,99.99
2023-03-03T03:24:06.924Z,99.99
2023-03-03T03:25:06.919Z,99.99
2023-03-03T03:26:06.928Z,99.99
2023-03-03T03:27:06.937Z,99.99
2023-03-03T03:28:06.926Z,99.99
2023-03-03T03:29:06.985Z,99.99
2023-03-03T03:30:06.950Z,99.99
2023-03-03T03:31:07.006Z,99.99
2023-03-03T03:32:07.014Z,99.99
2023-03-03T03:33:06.960Z,99.99
2023-03-03T03:34:06.948Z,99.99
2023-03-03T03:35:06.939Z,99.99
2023-03-03T03:36:06.995Z,99.99
2023-03-03T03:37:06.953Z,99.99
2023-03-03T03:38:06.940Z,99.99
2023-03-03T03:39:07.082Z,99.99
2023-03-03T03:40:06.940Z,99.99
2023-03-03T03:41:06.950Z,99.99
2023-03-03T03:42:06.972Z,99.99
2023-03-03T03:43:07.121Z,99.99
2023-03-03T03:44:06.947Z,99.99
2023-03-03T03:45:06.974Z,99.99
2023-03-03T03:46:07.100Z,99.99
2023-03-03T03:47:06.971Z,99.99
2023-03-03T03:48:06.997Z,99.99
2023-03-03T03:49:06.966Z,99.99
2023-03-03T03:50:07.034Z,99.99
2023-03-03T03:51:06.967Z,99.99
2023-03-03T03:52:09.787Z,99.99
2023-03-03T03:53:08.008Z,99.99
2023-03-03T03:54:06.982Z,99.99
2023-03-03T03:55:07.044Z,99.99
2023-03-03T03:56:06.995Z,99.99
2023-03-03T03:57:07.102Z,99.99
2023-03-03T03:58:07.015Z,99.99
2023-03-03T03:59:07.012Z,99.99
2023-03-03T04:00:06.989Z,99.99
2023-03-03T04:01:07.012Z,99.99
2023-03-03T04:02:07.279Z,99.99
2023-03-03T04:03:11.016Z,99.99
2023-03-03T04:04:06.994Z,99.99
2023-03-03T04:05:06.997Z,99.99
2023-03-03T04:06:07.021Z,99.99
2023-03-03T04:07:06.988Z,99.99
2023-03-03T04:08:07.068Z,99.99
2023-03-03T04:09:06.993Z,99.99
2023-03-03T04:10:07.001Z,99.99
2023-03-03T04:11:07.023Z,99.99
2023-03-03T04:12:07.050Z,99.99
2023-03-03T04:13:07.036Z,99.99
2023-03-03T04:14:09.835Z,99.99
2023-03-03T04:15:07.040Z,99.99
2023-03-03T04:16:07.281Z,99.99
2023-03-03T04:17:06.998Z,99.99
2023-03-03T04:18:07.088Z,99.99
2023-03-03T04:19:07.008Z,99.99
2023-03-03T04:20:07.091Z,99.99
2023-03-03T04:21:07.023Z,99.99
2023-03-03T04:22:07.071Z,99.99
2023-03-03T04:23:07.036Z,99.99
2023-03-03T04:24:07.047Z,99.99
2023-03-03T04:25:10.076Z,99.99
2023-03-03T04:26:07.022Z,99.99
2023-03-03T04:27:07.130Z,99.99
2023-03-03T04:28:08.128Z,99.99
2023-03-03T04:29:07.042Z,99.99
2023-03-03T04:30:07.034Z,99.99
2023-03-03T04:31:07.148Z,99.99
2023-03-03T04:32:07.101Z,99.99
2023-03-03T04:33:07.044Z,99.99
2023-03-03T04:34:07.065Z,99.99
2023-03-03T04:35:11.168Z,99.99
2023-03-03T04:36:09.822Z,99.99
2023-03-03T04:37:07.052Z,99.99
2023-03-03T04:38:07.045Z,99.99
2023-03-03T04:39:07.114Z,99.99
2023-03-03T04:40:07.092Z,99.99
2023-03-03T04:41:07.067Z,99.99
2023-03-03T04:42:07.051Z,99.99
2023-03-03T04:43:07.095Z,99.99
2023-03-03T04:44:07.067Z,99.99
2023-03-03T04:45:07.073Z,99.99
2023-03-03T04:46:07.195Z,99.99
2023-03-03T04:47:09.819Z,99.99
2023-03-03T04:48:07.082Z,99.99
2023-03-03T04:49:12.388Z,99.99
2023-03-03T04:50:07.083Z,99.99
2023-03-03T04:51:07.080Z,99.99
2023-03-03T04:52:07.077Z,99.99
2023-03-03T04:53:07.096Z,99.99
2023-03-03T04:54:07.125Z,99.99
2023-03-03T04:55:09.335Z,99.99
2023-03-03T04:56:07.071Z,99.99
2023-03-03T04:57:07.083Z,99.99
2023-03-03T04:58:09.929Z,99.99
2023-03-03T04:59:07.101Z,99.99
2023-03-03T05:00:07.107Z,99.99
2023-03-03T05:01:07.077Z,99.99
2023-03-03T05:02:07.066Z,99.99
2023-03-03T05:03:07.084Z,99.99
2023-03-03T05:04:07.086Z,99.99
2023-03-03T05:05:07.106Z,99.99
2023-03-03T05:06:07.101Z,99.99
2023-03-03T05:07:07.102Z,99.99
2023-03-03T05:08:07.085Z,99.99
2023-03-03T05:09:09.909Z,99.99
2023-03-03T05:10:07.096Z,99.99
2023-03-03T05:11:07.125Z,99.99
2023-03-03T05:12:07.214Z,99.99
2023-03-03T05:13:07.105Z,99.99
2023-03-03T05:14:07.097Z,99.99
2023-03-03T05:15:07.154Z,99.99
2023-03-03T05:16:07.210Z,99.99
2023-03-03T05:17:07.105Z,99.99
2023-03-03T05:18:07.099Z,99.99
2023-03-03T05:19:07.090Z,99.99
2023-03-03T05:20:07.124Z,99.99
2023-03-03T05:21:07.134Z,99.99
2023-03-03T05:22:07.101Z,99.99
2023-03-03T05:23:07.100Z,99.99
2023-03-03T05:24:07.133Z,99.99
2023-03-03T05:25:09.901Z,99.99
2023-03-03T05:26:07.129Z,99.99
2023-03-03T05:27:07.130Z,99.99
2023-03-03T05:28:07.112Z,99.99
2023-03-03T05:29:07.121Z,99.99
2023-03-03T05:30:07.122Z,99.99
2023-03-03T05:31:07.287Z,99.99
2023-03-03T05:32:07.369Z,99.99
2023-03-03T05:33:07.137Z,99.99
2023-03-03T05:34:07.142Z,99.99
2023-03-03T05:35:07.135Z,99.99
2023-03-03T05:36:09.897Z,99.99
2023-03-03T05:37:07.141Z,99.99
2023-03-03T05:38:07.912Z,99.99
2023-03-03T05:39:07.126Z,99.99
2023-03-03T05:40:07.134Z,99.99
2023-03-03T05:41:07.168Z,99.99
2023-03-03T05:42:07.170Z,99.99
2023-03-03T05:43:07.282Z,99.99
2023-03-03T05:44:07.150Z,99.99
2023-03-03T05:45:07.145Z,99.99
2023-03-03T05:46:07.158Z,99.99
2023-03-03T05:47:10.045Z,99.99
2023-03-03T05:48:07.172Z,99.99
2023-03-03T05:49:07.172Z,99.99
2023-03-03T05:50:07.181Z,99.99
2023-03-03T05:51:07.198Z,99.99
2023-03-03T05:52:07.172Z,99.99
2023-03-03T05:53:07.182Z,99.99
2023-03-03T05:54:07.186Z,99.99
2023-03-03T05:55:07.157Z,99.99
2023-03-03T05:56:07.174Z,99.99
2023-03-03T05:57:07.175Z,99.99
2023-03-03T05:58:07.152Z,99.99
2023-03-03T05:59:07.170Z,99.99
2023-03-03T06:00:07.180Z,99.99
2023-03-03T06:01:07.154Z,99.99
2023-03-03T06:02:07.234Z,99.99
2023-03-03T06:03:07.392Z,99.99
2023-03-03T06:04:07.176Z,99.99
2023-03-03T06:05:07.207Z,99.99
2023-03-03T06:06:07.187Z,99.99
2023-03-03T06:07:07.190Z,99.99
2023-03-03T06:08:07.182Z,99.99
2023-03-03T06:09:07.251Z,99.99
2023-03-03T06:10:07.193Z,99.99
2023-03-03T06:11:07.201Z,99.99
2023-03-03T06:12:07.199Z,99.99
2023-03-03T06:13:07.200Z,99.99
2023-03-03T06:14:07.221Z,99.99
2023-03-03T06:15:07.256Z,99.99
2023-03-03T06:16:07.327Z,99.99
2023-03-03T06:17:07.192Z,99.99
2023-03-03T06:18:07.201Z,99.99
2023-03-03T06:19:08.753Z,99.99
2023-03-03T06:20:07.543Z,99.99
2023-03-03T06:21:07.200Z,99.99
2023-03-03T06:22:07.198Z,99.99
2023-03-03T06:23:07.230Z,99.99
2023-03-03T06:24:07.252Z,99.99
2023-03-03T06:25:07.241Z,99.99
2023-03-03T06:26:07.244Z,99.99
2023-03-03T06:27:07.211Z,99.99
2023-03-03T06:28:07.235Z,99.99
2023-03-03T06:29:07.244Z,99.99
2023-03-03T06:30:10.315Z,99.99
2023-03-03T06:31:07.204Z,99.99
2023-03-03T06:32:07.632Z,99.99
2023-03-03T06:33:07.232Z,99.99
2023-03-03T06:34:07.248Z,99.99
2023-03-03T06:35:07.258Z,99.99
2023-03-03T06:36:08.245Z,99.99
2023-03-03T06:37:07.260Z,99.99
2023-03-03T06:38:07.232Z,99.99
2023-03-03T06:39:07.268Z,99.99
2023-03-03T06:40:07.277Z,99.99
2023-03-03T06:41:10.065Z,99.99
2023-03-03T06:42:07.250Z,99.99
2023-03-03T06:43:07.256Z,99.99
2023-03-03T06:44:07.294Z,99.99
2023-03-03T06:45:07.253Z,99.99
2023-03-03T06:46:07.326Z,99.99
2023-03-03T06:47:07.276Z,99.99
2023-03-03T06:48:07.233Z,99.99
2023-03-03T06:49:07.268Z,99.99
2023-03-03T06:50:07.250Z,99.99
2023-03-03T06:51:07.273Z,99.99
2023-03-03T06:52:10.268Z,99.99
2023-03-03T06:53:07.261Z,99.99
2023-03-03T06:54:07.288Z,99.99
2023-03-03T06:55:07.372Z,99.99
2023-03-03T06:56:07.250Z,99.99
2023-03-03T06:57:07.372Z,99.99
2023-03-03T06:58:07.250Z,99.99
2023-03-03T06:59:07.279Z,99.99
2023-03-03T07:00:07.320Z,99.99
2023-03-03T07:01:07.329Z,99.99
2023-03-03T07:02:07.266Z,99.99
2023-03-03T07:03:10.113Z,99.99
2023-03-03T07:04:07.410Z,99.99
2023-03-03T07:05:07.329Z,99.99
2023-03-03T07:06:08.645Z,99.99
2023-03-03T07:07:07.305Z,99.99
2023-03-03T07:08:07.313Z,99.99
2023-03-03T07:09:07.354Z,99.99
2023-03-03T07:10:07.285Z,99.99
2023-03-03T07:11:07.294Z,99.99
2023-03-03T07:12:07.303Z,99.99
2023-03-03T07:13:07.313Z,99.99
2023-03-03T07:14:10.139Z,99.99
2023-03-03T07:15:07.381Z,99.99
2023-03-03T07:16:07.294Z,99.99
2023-03-03T07:17:07.315Z,99.99
2023-03-03T07:18:07.404Z,99.99
2023-03-03T07:19:07.362Z,99.99
2023-03-03T07:20:07.338Z,99.99
2023-03-03T07:21:07.293Z,99.99
2023-03-03T07:22:07.300Z,99.99
2023-03-03T07:23:07.352Z,99.99
2023-03-03T07:24:07.341Z,99.99
2023-03-03T07:25:10.406Z,99.99
2023-03-03T07:26:07.340Z,99.99
2023-03-03T07:27:07.317Z,99.99
2023-03-03T07:28:07.314Z,99.99
2023-03-03T07:29:07.393Z,99.99
2023-03-03T07:30:07.322Z,99.99
2023-03-03T07:31:07.423Z,99.99
2023-03-03T07:32:07.491Z,99.99
2023-03-03T07:33:08.327Z,99.99
2023-03-03T07:34:07.376Z,99.99
2023-03-03T07:35:07.345Z,99.99
2023-03-03T07:36:10.126Z,99.99
2023-03-03T07:37:07.380Z,99.99
2023-03-03T07:38:07.558Z,99.99
2023-03-03T07:39:07.380Z,99.99
2023-03-03T07:40:07.454Z,99.99
2023-03-03T07:41:07.366Z,99.99
2023-03-03T07:42:07.356Z,99.99
2023-03-03T07:43:07.343Z,99.99
2023-03-03T07:44:07.379Z,99.99
2023-03-03T07:45:07.416Z,99.99
2023-03-03T07:46:07.457Z,99.99
2023-03-03T07:47:07.381Z,99.99
2023-03-03T07:48:07.190Z,99.99
2023-03-03T07:49:07.400Z,99.99
2023-03-03T07:50:07.352Z,99.99
2023-03-03T07:51:07.391Z,99.99
2023-03-03T07:52:07.382Z,99.99
2023-03-03T07:53:07.352Z,99.99
2023-03-03T07:54:07.378Z,99.99
2023-03-03T07:55:07.400Z,99.99
2023-03-03T07:56:07.360Z,99.99
2023-03-03T07:57:07.369Z,99.99
2023-03-03T07:58:07.358Z,99.99
2023-03-03T07:59:07.404Z,99.99
2023-03-03T08:00:07.400Z,99.99
2023-03-03T08:01:07.407Z,99.99
2023-03-03T08:02:07.394Z,99.99
2023-03-03T08:03:10.503Z,99.99
2023-03-03T08:04:07.686Z,99.99
2023-03-03T08:05:08.079Z,99.99
2023-03-03T08:06:07.420Z,99.99
2023-03-03T08:07:07.236Z,99.99
2023-03-03T08:08:07.398Z,99.99
2023-03-03T08:09:07.418Z,99.99
2023-03-03T08:10:07.487Z,99.99
2023-03-03T08:11:07.419Z,99.99
2023-03-03T08:12:07.394Z,99.99
2023-03-03T08:13:07.374Z,99.99
2023-03-03T08:14:08.833Z,99.99
2023-03-03T08:15:07.401Z,99.99
2023-03-03T08:16:07.547Z,99.99
2023-03-03T08:17:07.455Z,99.99
2023-03-03T08:18:07.393Z,99.99
2023-03-03T08:19:07.429Z,99.99
2023-03-03T08:20:07.390Z,99.99
2023-03-03T08:21:07.392Z,99.99
2023-03-03T08:22:07.390Z,99.99
2023-03-03T08:23:07.419Z,99.99
2023-03-03T08:24:07.426Z,99.99
2023-03-03T08:25:07.452Z,99.99
2023-03-03T08:26:08.390Z,99.99
2023-03-03T08:27:07.465Z,99.99
2023-03-03T08:28:07.398Z,99.99
2023-03-03T08:29:07.425Z,99.99
2023-03-03T08:30:07.417Z,99.99
2023-03-03T08:31:38.619Z,99.99
2023-03-03T08:32:07.623Z,99.99
2023-03-03T08:33:07.432Z,99.99
2023-03-03T08:34:07.435Z,99.99
2023-03-03T08:35:07.461Z,99.99
2023-03-03T08:36:08.518Z,99.99
2023-03-03T08:37:07.423Z,99.99
2023-03-03T08:38:07.440Z,99.99
2023-03-03T08:39:07.468Z,99.99
2023-03-03T08:40:07.427Z,99.99
2023-03-03T08:41:07.419Z,99.99
2023-03-03T08:42:07.435Z,99.99
2023-03-03T08:43:07.482Z,99.99
2023-03-03T08:44:07.452Z,99.99
2023-03-03T08:45:07.458Z,99.99
2023-03-03T08:46:10.419Z,99.99
2023-03-03T08:47:07.427Z,99.99
2023-03-03T08:48:08.551Z,99.99
2023-03-03T08:49:07.478Z,99.99
2023-03-03T08:50:07.453Z,99.99
2023-03-03T08:51:07.440Z,99.99
2023-03-03T08:52:07.460Z,99.99
2023-03-03T08:53:07.431Z,99.99
2023-03-03T08:54:07.468Z,99.99
2023-03-03T08:55:09.307Z,99.99
2023-03-03T08:56:07.449Z,99.99
2023-03-03T08:57:10.435Z,99.99
2023-03-03T08:58:07.445Z,99.99
2023-03-03T08:59:07.505Z,99.99
2023-03-03T09:00:07.486Z,99.99
2023-03-03T09:01:07.612Z,99.99
2023-03-03T09:02:07.568Z,99.99
2023-03-03T09:03:07.606Z,99.99
2023-03-03T09:04:07.786Z,99.99
2023-03-03T09:05:07.518Z,99.99
2023-03-03T09:06:07.456Z,99.99
2023-03-03T09:07:07.455Z,99.99
2023-03-03T09:08:10.523Z,99.99
2023-03-03T09:09:07.465Z,99.99
2023-03-03T09:10:07.497Z,99.88
2023-03-03T09:11:07.466Z,99.22
2023-03-03T09:12:07.465Z,98.88
2023-03-03T09:13:08.930Z,98.74
2023-03-03T09:14:07.482Z,98.32
2023-03-03T09:15:07.490Z,97.74
2023-03-03T09:16:07.548Z,97.55
2023-03-03T09:17:07.519Z,96.7
2023-03-03T09:18:07.479Z,96.46
2023-03-03T09:19:10.312Z,96.17
2023-03-03T09:20:07.534Z,95.79
2023-03-03T09:21:07.505Z,95.7
2023-03-03T09:22:07.489Z,95.51
2023-03-03T09:23:07.504Z,94.74
2023-03-03T09:24:07.493Z,95.12
2023-03-03T09:25:07.489Z,94.56
2023-03-03T09:26:07.500Z,93.93
2023-03-03T09:27:07.644Z,94.27
2023-03-03T09:28:07.488Z,93.74
2023-03-03T09:29:07.501Z,93.55
2023-03-03T09:30:10.519Z,93.17
2023-03-03T09:31:09.982Z,93.17
2023-03-03T09:32:07.738Z,92.79
2023-03-03T09:33:07.495Z,92.46
2023-03-03T09:34:07.500Z,91.98
2023-03-03T09:35:07.489Z,91.79
2023-03-03T09:36:07.500Z,91.13
2023-03-03T09:37:07.512Z,91.13
2023-03-03T09:38:07.501Z,91.27
2023-03-03T09:39:07.541Z,91.03
2023-03-03T09:40:07.504Z,90.45
2023-03-03T09:41:10.259Z,90.84
2023-03-03T09:42:07.511Z,90.69
2023-03-03T09:43:07.520Z,89.83
2023-03-03T09:44:07.505Z,90.12
2023-03-03T09:45:07.606Z,90.31
2023-03-03T09:46:07.583Z,90.03
2023-03-03T09:47:07.556Z,89.74
2023-03-03T09:48:07.556Z,89.45
2023-03-03T09:49:07.514Z,88.98
2023-03-03T09:50:07.549Z,88.88
2023-03-03T09:51:07.515Z,88.83
2023-03-03T09:52:10.723Z,88.73
2023-03-03T09:53:07.527Z,88.4
2023-03-03T09:54:07.590Z,88.4
2023-03-03T09:55:07.517Z,88.59
2023-03-03T09:56:07.601Z,88.35
2023-03-03T09:57:07.524Z,87.68
2023-03-03T09:58:16.543Z,87.59
2023-03-03T09:59:08.550Z,87.78
2023-03-03T10:00:07.557Z,88.07
2023-03-03T10:01:07.538Z,87.49
2023-03-03T10:02:08.840Z,87.68
2023-03-03T10:03:07.650Z,87.21
2023-03-03T10:04:07.641Z,86.63
2023-03-03T10:05:07.605Z,86.49
2023-03-03T10:06:07.546Z,86.49
2023-03-03T10:07:07.544Z,86.68
2023-03-03T10:08:07.580Z,86.01
2023-03-03T10:09:07.565Z,86.25
2023-03-03T10:10:07.581Z,86.16
2023-03-03T10:11:07.553Z,86.1
2023-03-03T10:12:07.553Z,85.34
2023-03-03T10:13:07.578Z,85.68
2023-03-03T10:14:07.693Z,86.73
2023-03-03T10:15:07.585Z,86.2
2023-03-03T10:16:07.640Z,85.44
2023-03-03T10:17:07.568Z,85.87
2023-03-03T10:18:07.560Z,86.06
2023-03-03T10:19:07.617Z,86.44
2023-03-03T10:20:07.580Z,86.06
2023-03-03T10:21:07.564Z,85.68
2023-03-03T10:22:07.629Z,85.77
2023-03-03T10:23:07.583Z,85.77
2023-03-03T10:24:07.595Z,85.3
2023-03-03T10:25:07.621Z,85.34
2023-03-03T10:26:07.586Z,85.44
2023-03-03T10:27:15.806Z,85.05
2023-03-03T10:28:07.626Z,85.29
2023-03-03T10:29:07.601Z,84.05
2023-03-03T10:30:08.886Z,84.29
2023-03-03T10:31:17.946Z,84.48
2023-03-03T10:32:08.059Z,84.52
2023-03-03T10:33:08.206Z,84.23
2023-03-03T10:34:07.574Z,83.81
2023-03-03T10:35:07.895Z,84.05
2023-03-03T10:36:10.171Z,83.86
2023-03-03T10:37:07.612Z,84.05
2023-03-03T10:38:07.586Z,83.86
2023-03-03T10:39:07.611Z,83.67
2023-03-03T10:40:07.671Z,83.28
2023-03-03T10:41:08.617Z,83.38
2023-03-03T10:42:07.608Z,83.67
2023-03-03T10:43:07.611Z,83.47
2023-03-03T10:44:07.625Z,83.18
2023-03-03T10:45:07.719Z,83.57
2023-03-03T10:46:07.750Z,83
2023-03-03T10:47:07.623Z,83.57
2023-03-03T10:48:07.612Z,83.28
2023-03-03T10:49:07.619Z,82.37
2023-03-03T10:50:07.643Z,82.32
2023-03-03T10:51:07.663Z,82.23
2023-03-03T10:52:07.630Z,82.71
2023-03-03T10:53:07.632Z,82.81
2023-03-03T10:54:07.616Z,82.42
2023-03-03T10:55:07.655Z,84.05
2023-03-03T10:56:07.700Z,85.19
2023-03-03T10:57:07.636Z,84.66
2023-03-03T10:58:07.629Z,83.9
2023-03-03T10:59:07.616Z,83.23
2023-03-03T11:00:07.664Z,82.46
2023-03-03T11:01:07.705Z,81.79
2023-03-03T11:02:07.642Z,81.41
2023-03-03T11:03:07.645Z,81.7
2023-03-03T11:04:07.721Z,81.89
2023-03-03T11:05:07.711Z,81.6
2023-03-03T11:06:07.660Z,81.16
2023-03-03T11:07:09.517Z,81.79
2023-03-03T11:08:07.657Z,82.08
2023-03-03T11:09:07.677Z,82.28
2023-03-03T11:10:07.672Z,81.99
2023-03-03T11:11:07.663Z,82.37
2023-03-03T11:12:07.685Z,81.51
2023-03-03T11:13:10.838Z,82.75
2023-03-03T11:14:07.698Z,81.84
2023-03-03T11:15:07.683Z,81.26
2023-03-03T11:16:07.742Z,80.88
2023-03-03T11:17:07.921Z,80.59
2023-03-03T11:18:07.655Z,80.65
2023-03-03T11:19:07.677Z,80.59
2023-03-03T11:20:07.686Z,79.93
2023-03-03T11:21:07.685Z,79.83
2023-03-03T11:22:07.751Z,80.59
2023-03-03T11:23:07.697Z,80.5
2023-03-03T11:24:10.838Z,79.93
2023-03-03T11:25:07.952Z,80.3
2023-03-03T11:26:07.700Z,79.73
2023-03-03T11:27:08.248Z,79.64
2023-03-03T11:28:07.700Z,79.16
2023-03-03T11:29:07.686Z,78.68
2023-03-03T11:30:07.704Z,78.3
2023-03-03T11:31:07.753Z,78.45
2023-03-03T11:32:07.822Z,78.68
2023-03-03T11:33:07.706Z,79.06
2023-03-03T11:34:07.816Z,79.25
2023-03-03T11:35:10.478Z,78.78
2023-03-03T11:36:07.828Z,78.3
2023-03-03T11:37:07.726Z,79.16
2023-03-03T11:38:07.773Z,79.44
2023-03-03T11:39:07.773Z,78.49
2023-03-03T11:40:07.705Z,79.25
2023-03-03T11:41:07.711Z,78.97
2023-03-03T11:42:07.715Z,78.97
2023-03-03T11:43:07.713Z,79.06
2023-03-03T11:44:07.742Z,79.16
2023-03-03T11:45:07.783Z,78.78
2023-03-03T11:46:11.750Z,78.78
2023-03-03T11:47:07.757Z,79.25
2023-03-03T11:48:07.717Z,79.25
2023-03-03T11:49:07.728Z,78.72
2023-03-03T11:50:07.739Z,78.68
2023-03-03T11:51:07.732Z,78.39
2023-03-03T11:52:07.735Z,78.24
2023-03-03T11:53:07.728Z,78.68
2023-03-03T11:54:07.735Z,78.11
2023-03-03T11:55:08.006Z,78.11
2023-03-03T11:56:07.756Z,78.39
2023-03-03T11:57:10.876Z,78.3
2023-03-03T11:58:07.743Z,78.11
2023-03-03T11:59:07.762Z,78.58
2023-03-03T12:00:07.772Z,78.43
2023-03-03T12:01:07.742Z,78.87
2023-03-03T12:02:07.757Z,78.58
2023-03-03T12:03:07.744Z,78.58
2023-03-03T12:04:07.743Z,78.97
2023-03-03T12:05:07.814Z,78.11
2023-03-03T12:06:07.955Z,77.44
2023-03-03T12:07:20.227Z,77.53
2023-03-03T12:08:10.706Z,77.44
2023-03-03T12:09:07.758Z,76.9
2023-03-03T12:10:07.782Z,76.42
2023-03-03T12:11:07.778Z,76.23
2023-03-03T12:12:07.756Z,76.67
2023-03-03T12:13:07.780Z,77.59
2023-03-03T12:14:07.775Z,78.11
2023-03-03T12:15:07.778Z,78.3
2023-03-03T12:16:07.877Z,78.2
2023-03-03T12:17:07.775Z,78.01
2023-03-03T12:18:07.758Z,77.53
2023-03-03T12:19:10.529Z,77.15
2023-03-03T12:20:07.835Z,76.67
2023-03-03T12:21:07.768Z,76.57
2023-03-03T12:22:07.798Z,76.86
2023-03-03T12:23:09.670Z,76.77
2023-03-03T12:24:07.777Z,77.25
2023-03-03T12:25:07.821Z,77.15
2023-03-03T12:26:07.783Z,76.86
2023-03-03T12:27:07.807Z,77.15
2023-03-03T12:28:07.789Z,76.81
2023-03-03T12:29:10.070Z,76.9
2023-03-03T12:30:10.674Z,76.62
2023-03-03T12:31:07.867Z,76.23
2023-03-03T12:32:07.998Z,75.71
2023-03-03T12:33:07.803Z,75.43
2023-03-03T12:34:07.806Z,76.2
2023-03-03T12:35:07.809Z,76
2023-03-03T12:36:07.797Z,76.1
2023-03-03T12:37:07.825Z,75.95
2023-03-03T12:38:07.828Z,75.95
2023-03-03T12:39:07.833Z,75.14
2023-03-03T12:40:07.816Z,75.95
2023-03-03T12:41:07.849Z,76.14
2023-03-03T12:42:07.838Z,75.76
2023-03-03T12:43:07.874Z,75.56
2023-03-03T12:44:07.820Z,75.76
2023-03-03T12:45:07.844Z,74.9
2023-03-03T12:46:07.835Z,74.9
2023-03-03T12:47:07.990Z,74.45
2023-03-03T12:48:07.858Z,74.41
2023-03-03T12:49:07.832Z,74.13
2023-03-03T12:50:10.425Z,73.84
2023-03-03T12:51:07.868Z,73.84
2023-03-03T12:52:07.851Z,73.88
2023-03-03T12:53:12.344Z,73.4
2023-03-03T12:54:07.881Z,73.55